Terminal Aerodrome Forecast
Issued by NWS

Home | Current Version | Previous Version | Text Only | Print | Product List | Glossary Off
Versions: 1 2 3 4 5 6 7 8 9 10 11 12 13 14 15 16 17 18 19

000
FTUS43 KMPX 222336
TAFRWF
TAF
KRWF 222336Z 2300/2324 16004KT P6SM SCT120 OVC250
     FM231100 22005KT P6SM SCT060 OVC120
     FM231700 17011KT P6SM VCSH OVC050=

USA.gov is the U.S. government's official web portal to all federal, state and local government web resources and services.